KMIV

Millville Municipal Airport

Millville, New Jersey, USA
METAR KMIV 160954Z AUTO 27005KT 3SM BR CLR M11/M12 A3008 RMK AO2 SLP186 I1000 T11111117
Observed Flight Rules
Dec-16 @ 09:54 UTC (57 minutes ago) Marginal Visual Flight Rules
Wind Visibility Clouds Conditions
270° at 5 knots 3 miles
  • Clear skies
  • Mist
Temperatures Readings
Current -11°C / 12°F
Dewpoint -12°C / 10°F
Humidity 92%
Altimeter 30.08" Hg
Pressure 1018.6 hPa
Elevation 23
METAR KMIV 160954Z AUTO 27005KT 3SM BR CLR M11/M12 A3008 RMK AO2 SLP186 I1000 T11111117
Observed Flight Rules
Dec-16 @ 09:54 UTC
(57 minutes ago)
MVFR
Wind Visibility
270° at 5 knots 3 miles
Clouds
  • Clear skies
Conditions
  • Mist
Temperature Dewpoint
-11°C / 12°F -12°C / 10°F
Humidity Altimeter Pressure
92% 30.08" Hg 1018.6 hPa